createdAt,value
2022-12-12T00:01:41.685Z,12.61
2022-12-12T00:06:44.019Z,12.58
2022-12-12T00:11:46.254Z,12.71
2022-12-12T00:16:48.565Z,12.60
2022-12-12T00:21:51.737Z,12.46
2022-12-12T00:26:56.173Z,12.47
2022-12-12T00:31:58.577Z,12.49
2022-12-12T00:37:00.842Z,12.47
2022-12-12T00:42:03.060Z,12.34
2022-12-12T00:47:05.527Z,12.44
2022-12-12T00:52:08.558Z,12.32
2022-12-12T00:57:10.779Z,12.29
2022-12-12T01:02:13.811Z,12.26
2022-12-12T01:07:16.140Z,12.19
2022-12-12T01:12:18.624Z,12.14
2022-12-12T01:17:21.213Z,12.10
2022-12-12T01:22:23.948Z,12.01
2022-12-12T01:27:26.153Z,12.04
2022-12-12T01:32:29.709Z,11.86
2022-12-12T01:37:32.300Z,11.93
2022-12-12T01:42:35.123Z,11.93
2022-12-12T01:47:37.424Z,11.87
2022-12-12T01:52:44.578Z,11.81
2022-12-12T01:57:50.052Z,11.77
2022-12-12T02:02:54.239Z,11.56
2022-12-12T02:07:59.231Z,11.61
2022-12-12T02:13:10.166Z,11.44
2022-12-12T02:18:26.830Z,11.50
2022-12-12T02:23:46.638Z,11.38
2022-12-12T02:29:04.011Z,11.41
2022-12-12T02:34:20.218Z,11.34
2022-12-12T02:39:47.405Z,11.17
2022-12-12T02:44:59.369Z,10.85
2022-12-12T02:50:12.400Z,10.96
2022-12-12T02:55:15.914Z,11.13
2022-12-12T03:00:20.087Z,10.99
2022-12-12T03:06:01.313Z,11.09
2022-12-12T03:11:12.687Z,11.04
2022-12-12T03:16:24.158Z,11.10
2022-12-12T03:21:43.206Z,10.75
2022-12-12T03:27:08.434Z,10.93
2022-12-12T03:32:20.282Z,10.73
2022-12-12T03:37:30.572Z,10.86
2022-12-12T03:42:44.631Z,10.91
2022-12-12T03:48:03.930Z,10.84
2022-12-12T03:53:20.292Z,10.75
2022-12-12T03:58:38.444Z,10.55
2022-12-12T04:03:52.840Z,10.83
2022-12-12T04:09:30.587Z,10.76
2022-12-12T04:14:54.242Z,10.73
2022-12-12T04:20:23.372Z,10.42
2022-12-12T04:26:01.469Z,10.46
2022-12-12T04:31:07.371Z,10.47
2022-12-12T04:36:12.573Z,10.59
2022-12-12T04:41:17.078Z,10.52
2022-12-12T04:46:25.083Z,10.60
2022-12-12T04:51:33.072Z,10.62
2022-12-12T04:56:38.904Z,10.55
2022-12-12T05:01:53.145Z,10.63
2022-12-12T05:07:05.963Z,10.55
2022-12-12T05:12:08.767Z,10.67
2022-12-12T05:17:16.251Z,10.61
2022-12-12T05:22:18.632Z,10.44
2022-12-12T05:27:20.971Z,10.57
2022-12-12T05:32:23.553Z,10.52
2022-12-12T05:37:26.136Z,10.49
2022-12-12T05:42:31.238Z,10.49
2022-12-12T05:47:34.460Z,10.61
2022-12-12T05:52:39.133Z,10.45
2022-12-12T05:57:41.481Z,10.40
2022-12-12T06:02:44.521Z,10.42
2022-12-12T06:07:46.939Z,10.32
2022-12-12T06:12:49.889Z,10.39
2022-12-12T06:17:52.731Z,10.34
2022-12-12T06:22:55.294Z,10.34
2022-12-12T06:27:59.151Z,10.28
2022-12-12T06:33:01.965Z,10.33
2022-12-12T06:38:04.466Z,10.23
2022-12-12T06:43:06.852Z,10.28
2022-12-12T06:48:09.225Z,10.32
2022-12-12T06:53:13.287Z,10.64
2022-12-12T06:58:15.628Z,10.74
2022-12-12T07:03:18.053Z,10.66
2022-12-12T07:08:20.477Z,10.92
2022-12-12T07:13:23.216Z,11.01
2022-12-12T07:18:25.600Z,11.18
2022-12-12T07:23:28.085Z,11.43
2022-12-12T07:28:30.460Z,11.31
2022-12-12T07:33:42.709Z,11.77
2022-12-12T07:38:46.489Z,11.60
2022-12-12T07:43:50.293Z,12.10
2022-12-12T07:48:54.313Z,12.16
2022-12-12T07:53:56.650Z,12.23
2022-12-12T07:58:58.930Z,12.36
2022-12-12T08:04:02.208Z,12.53
2022-12-12T08:09:05.521Z,12.66
2022-12-12T08:14:12.915Z,12.60
2022-12-12T08:19:16.637Z,12.76
2022-12-12T08:24:19.106Z,12.86
2022-12-12T08:29:21.453Z,12.97
2022-12-12T08:34:24.181Z,13.25
2022-12-12T08:39:26.647Z,13.07
2022-12-12T08:44:29.014Z,13.33
2022-12-12T08:49:31.910Z,13.35
2022-12-12T08:54:34.777Z,13.52
2022-12-12T08:59:37.207Z,13.59
2022-12-12T09:04:39.532Z,13.72
2022-12-12T09:09:41.815Z,13.94
2022-12-12T09:14:44.400Z,13.96
2022-12-12T09:19:46.728Z,14.04
2022-12-12T09:24:49.107Z,14.17
2022-12-12T09:29:51.483Z,14.36
2022-12-12T09:34:54.198Z,14.29
2022-12-12T09:39:56.701Z,14.46
2022-12-12T09:45:08.400Z,14.57
2022-12-12T09:50:25.350Z,14.74
2022-12-12T09:55:35.734Z,14.74
2022-12-12T10:00:45.144Z,14.97
2022-12-12T10:06:35.975Z,15.08
2022-12-12T10:11:52.115Z,15.28
2022-12-12T10:16:58.191Z,15.35
2022-12-12T10:22:15.099Z,15.53
2022-12-12T10:27:17.599Z,15.65
2022-12-12T10:32:48.338Z,15.62
2022-12-12T11:13:23.736Z,15.35
2022-12-12T11:18:27.155Z,15.68
2022-12-12T11:23:31.782Z,15.69
2022-12-12T11:28:37.309Z,15.92
2022-12-12T11:33:46.511Z,15.94
2022-12-12T11:38:53.471Z,16.05
2022-12-12T11:44:03.599Z,16.07
2022-12-12T11:49:06.517Z,16.10
2022-12-12T11:54:16.013Z,16.25
2022-12-12T11:59:28.690Z,16.07
2022-12-12T12:05:06.945Z,16.06
2022-12-12T12:10:24.891Z,16.19
2022-12-12T12:15:27.311Z,16.28
2022-12-12T12:20:41.665Z,16.31
2022-12-12T12:25:51.147Z,16.25
2022-12-12T12:31:19.531Z,16.28
2022-12-12T12:36:29.352Z,16.17
2022-12-12T12:41:39.994Z,16.26
2022-12-12T12:46:44.967Z,16.24
2022-12-12T12:51:57.412Z,16.31
2022-12-12T12:57:13.141Z,16.27
2022-12-12T13:02:29.288Z,16.30
2022-12-12T13:07:40.874Z,16.38
2022-12-12T13:13:03.983Z,16.35
2022-12-12T13:18:12.185Z,16.17
2022-12-12T13:23:32.510Z,16.35
2022-12-12T13:28:46.159Z,16.39
2022-12-12T13:33:56.272Z,16.50
2022-12-12T13:39:01.053Z,16.52
2022-12-12T13:44:03.383Z,16.31
2022-12-12T13:49:22.392Z,16.37
2022-12-12T13:54:24.788Z,16.44
2022-12-12T13:59:26.977Z,16.40
2022-12-12T14:04:38.732Z,16.36
2022-12-12T14:09:49.641Z,16.29
2022-12-12T14:14:58.843Z,16.25
2022-12-12T14:20:01.940Z,16.16
2022-12-12T14:25:19.558Z,16.12
2022-12-12T14:30:34.008Z,16.11
2022-12-12T14:36:02.675Z,16.04
2022-12-12T14:41:13.404Z,15.97
2022-12-12T14:46:17.919Z,15.97
2022-12-12T14:51:29.235Z,15.92
2022-12-12T14:56:52.661Z,15.84
2022-12-12T15:02:08.016Z,15.80
2022-12-12T15:07:30.927Z,15.69
2022-12-12T15:12:36.169Z,15.68
2022-12-12T15:17:48.956Z,15.60
2022-12-12T15:22:55.561Z,15.57
2022-12-12T15:27:59.142Z,15.52
2022-12-12T15:33:03.890Z,15.35
2022-12-12T15:38:12.809Z,15.45
2022-12-12T15:43:19.294Z,15.33
2022-12-12T15:48:22.961Z,15.29
2022-12-12T15:53:28.710Z,15.20
2022-12-12T15:58:35.549Z,15.24
2022-12-12T16:03:38.141Z,15.15
2022-12-12T16:08:47.651Z,15.16
2022-12-12T16:13:49.962Z,14.97
2022-12-12T16:18:52.274Z,14.91
2022-12-12T16:23:55.070Z,14.88
2022-12-12T16:28:58.899Z,14.97
2022-12-12T16:34:03.940Z,14.86
2022-12-12T16:39:06.796Z,14.88
2022-12-12T16:44:09.158Z,14.79
2022-12-12T16:49:15.332Z,14.84
2022-12-12T16:54:18.108Z,14.63
2022-12-12T16:59:20.396Z,14.75
2022-12-12T17:04:24.541Z,14.65
2022-12-12T17:09:30.112Z,14.61
2022-12-12T17:14:32.762Z,14.65
2022-12-12T17:19:35.188Z,14.77
2022-12-12T17:24:37.517Z,14.63
2022-12-12T17:29:40.009Z,14.71
2022-12-12T17:34:43.324Z,14.73
2022-12-12T17:39:45.629Z,14.67
2022-12-12T17:44:49.548Z,14.66
2022-12-12T17:49:51.819Z,14.52
2022-12-12T17:55:53.863Z,14.48
2022-12-12T18:00:17.484Z,14.48
2022-12-12T18:05:20.174Z,14.41
2022-12-12T18:10:22.446Z,14.41
2022-12-12T18:15:24.746Z,14.45
2022-12-12T18:20:31.323Z,14.35
2022-12-12T18:25:36.960Z,14.22
2022-12-12T18:30:42.697Z,14.14
2022-12-12T18:35:45.008Z,14.14
2022-12-12T18:40:47.343Z,13.84
2022-12-12T18:45:49.749Z,14.01
2022-12-12T18:50:52.053Z,13.91
2022-12-12T18:55:54.417Z,13.88
2022-12-12T19:01:13.648Z,13.68
2022-12-12T19:06:22.974Z,13.87
2022-12-12T19:11:25.399Z,13.88
2022-12-12T19:16:27.978Z,13.82
2022-12-12T19:21:30.419Z,13.53
2022-12-12T19:26:32.732Z,13.53
2022-12-12T19:31:36.556Z,13.62
2022-12-12T19:36:39.464Z,13.70
2022-12-12T19:41:42.549Z,13.51
2022-12-12T19:46:48.138Z,13.57
2022-12-12T19:51:50.471Z,13.39
2022-12-12T19:56:52.839Z,13.33
2022-12-12T20:01:55.402Z,13.35
2022-12-12T20:06:58.228Z,13.04
2022-12-12T20:12:03.924Z,13.04
2022-12-12T20:17:06.479Z,13.12
2022-12-12T20:22:09.080Z,12.92
2022-12-12T20:27:11.989Z,13.02
2022-12-12T20:32:15.005Z,13.19
2022-12-12T20:37:20.194Z,13.04
2022-12-12T20:42:23.050Z,13.14
2022-12-12T20:47:25.594Z,12.99
2022-12-12T20:52:27.807Z,13.09
2022-12-12T20:57:30.293Z,13.09
2022-12-12T21:02:32.662Z,12.90
2022-12-12T21:07:35.068Z,12.94
2022-12-12T21:12:37.334Z,12.75
2022-12-12T21:17:39.607Z,12.85
2022-12-12T21:22:41.853Z,12.83
2022-12-12T21:27:44.171Z,12.77
2022-12-12T21:32:46.495Z,12.94
2022-12-12T21:37:48.740Z,12.72
2022-12-12T21:42:51.224Z,12.90
2022-12-12T21:47:53.611Z,12.90
2022-12-12T21:53:14.460Z,12.85
2022-12-12T21:58:17.015Z,12.90
2022-12-12T22:03:19.450Z,12.78
2022-12-12T22:08:21.746Z,12.74
2022-12-12T22:13:24.242Z,12.91
2022-12-12T22:18:26.849Z,12.82
2022-12-12T22:23:29.139Z,12.61
2022-12-12T22:28:31.461Z,12.63
2022-12-12T22:33:33.859Z,12.72
2022-12-12T22:38:38.400Z,12.82
2022-12-12T22:43:41.082Z,12.63
2022-12-12T22:48:43.707Z,12.79
2022-12-12T22:53:46.767Z,12.74
2022-12-12T22:58:49.103Z,12.79
2022-12-12T23:03:52.592Z,12.94
2022-12-12T23:08:57.465Z,12.76
2022-12-12T23:14:04.815Z,12.93
2022-12-12T23:19:08.455Z,12.84
2022-12-12T23:24:11.055Z,13.00
2022-12-12T23:29:17.403Z,13.01
2022-12-12T23:34:23.558Z,12.95
2022-12-12T23:39:27.221Z,12.75
2022-12-12T23:44:29.569Z,12.80
2022-12-12T23:49:32.020Z,12.79
2022-12-12T23:54:35.406Z,12.80
2022-12-12T23:59:37.964Z,12.83
